sensor_id;sensor_type;location;lat;lon;timestamp;P1;durP1;ratioP1;P2;durP2;ratioP2
12042;SDS011;6082;49.306;12.862;2022-11-15T00:01:19;13.60;;;8.07;;
12042;SDS011;6082;49.306;12.862;2022-11-15T00:03:45;14.67;;;7.03;;
12042;SDS011;6082;49.306;12.862;2022-11-15T00:06:12;14.10;;;7.80;;
12042;SDS011;6082;49.306;12.862;2022-11-15T00:08:38;12.37;;;7.33;;
12042;SDS011;6082;49.306;12.862;2022-11-15T00:11:04;12.70;;;7.00;;
12042;SDS011;6082;49.306;12.862;2022-11-15T00:13:30;10.10;;;6.63;;
12042;SDS011;6082;49.306;12.862;2022-11-15T00:15:56;12.33;;;6.57;;
12042;SDS011;6082;49.306;12.862;2022-11-15T00:18:23;11.43;;;6.50;;
12042;SDS011;6082;49.306;12.862;2022-11-15T00:20:49;14.23;;;7.87;;
12042;SDS011;6082;49.306;12.862;2022-11-15T00:23:15;16.33;;;8.33;;
12042;SDS011;6082;49.306;12.862;2022-11-15T00:25:41;13.90;;;7.43;;
12042;SDS011;6082;49.306;12.862;2022-11-15T00:28:07;14.43;;;7.97;;
12042;SDS011;6082;49.306;12.862;2022-11-15T00:30:33;14.70;;;8.17;;
12042;SDS011;6082;49.306;12.862;2022-11-15T00:33:06;15.90;;;8.20;;
12042;SDS011;6082;49.306;12.862;2022-11-15T00:35:32;15.17;;;8.47;;
12042;SDS011;6082;49.306;12.862;2022-11-15T00:37:59;13.47;;;8.30;;
12042;SDS011;6082;49.306;12.862;2022-11-15T00:40:25;14.17;;;7.57;;
12042;SDS011;6082;49.306;12.862;2022-11-15T00:42:51;13.47;;;7.77;;
12042;SDS011;6082;49.306;12.862;2022-11-15T00:45:17;12.33;;;6.93;;
12042;SDS011;6082;49.306;12.862;2022-11-15T00:47:44;14.93;;;8.03;;
12042;SDS011;6082;49.306;12.862;2022-11-15T00:50:11;15.07;;;7.90;;
12042;SDS011;6082;49.306;12.862;2022-11-15T00:52:37;13.23;;;7.23;;
12042;SDS011;6082;49.306;12.862;2022-11-15T00:55:03;17.67;;;7.27;;
12042;SDS011;6082;49.306;12.862;2022-11-15T00:57:29;17.17;;;8.17;;
12042;SDS011;6082;49.306;12.862;2022-11-15T00:59:55;13.90;;;6.60;;
12042;SDS011;6082;49.306;12.862;2022-11-15T01:02:21;12.10;;;6.90;;
12042;SDS011;6082;49.306;12.862;2022-11-15T01:04:47;17.60;;;7.87;;
12042;SDS011;6082;49.306;12.862;2022-11-15T01:07:13;14.20;;;6.47;;
12042;SDS011;6082;49.306;12.862;2022-11-15T01:09:39;12.07;;;7.13;;
12042;SDS011;6082;49.306;12.862;2022-11-15T01:12:05;11.70;;;7.33;;
12042;SDS011;6082;49.306;12.862;2022-11-15T01:14:31;13.77;;;7.37;;
12042;SDS011;6082;49.306;12.862;2022-11-15T01:16:57;12.73;;;6.97;;
12042;SDS011;6082;49.306;12.862;2022-11-15T01:19:23;12.77;;;6.93;;
12042;SDS011;6082;49.306;12.862;2022-11-15T01:21:50;16.17;;;8.53;;
12042;SDS011;6082;49.306;12.862;2022-11-15T01:24:16;13.17;;;6.93;;
12042;SDS011;6082;49.306;12.862;2022-11-15T01:26:42;11.97;;;7.23;;
12042;SDS011;6082;49.306;12.862;2022-11-15T01:29:11;9.07;;;5.33;;
12042;SDS011;6082;49.306;12.862;2022-11-15T01:31:37;10.63;;;5.77;;
12042;SDS011;6082;49.306;12.862;2022-11-15T01:34:03;9.97;;;5.70;;
12042;SDS011;6082;49.306;12.862;2022-11-15T01:36:29;13.93;;;6.70;;
12042;SDS011;6082;49.306;12.862;2022-11-15T01:38:58;12.77;;;6.27;;
12042;SDS011;6082;49.306;12.862;2022-11-15T01:41:29;14.33;;;7.23;;
12042;SDS011;6082;49.306;12.862;2022-11-15T01:43:57;12.50;;;6.80;;
12042;SDS011;6082;49.306;12.862;2022-11-15T01:46:25;13.87;;;6.77;;
12042;SDS011;6082;49.306;12.862;2022-11-15T01:48:53;15.00;;;7.20;;
12042;SDS011;6082;49.306;12.862;2022-11-15T01:51:20;20.23;;;8.70;;
12042;SDS011;6082;49.306;12.862;2022-11-15T01:53:48;12.97;;;7.30;;
12042;SDS011;6082;49.306;12.862;2022-11-15T01:56:17;13.77;;;7.30;;
12042;SDS011;6082;49.306;12.862;2022-11-15T01:58:44;11.97;;;6.60;;
12042;SDS011;6082;49.306;12.862;2022-11-15T02:01:11;12.23;;;7.07;;
12042;SDS011;6082;49.306;12.862;2022-11-15T02:03:39;11.07;;;6.47;;
12042;SDS011;6082;49.306;12.862;2022-11-15T02:06:07;11.10;;;6.37;;
12042;SDS011;6082;49.306;12.862;2022-11-15T02:08:34;10.87;;;6.30;;
12042;SDS011;6082;49.306;12.862;2022-11-15T02:11:00;10.00;;;6.27;;
12042;SDS011;6082;49.306;12.862;2022-11-15T02:13:26;10.00;;;5.37;;
12042;SDS011;6082;49.306;12.862;2022-11-15T02:16:03;11.70;;;6.67;;
12042;SDS011;6082;49.306;12.862;2022-11-15T02:18:32;11.00;;;6.97;;
12042;SDS011;6082;49.306;12.862;2022-11-15T02:37:03;13.90;;;7.07;;
12042;SDS011;6082;49.306;12.862;2022-11-15T02:42:02;12.73;;;6.50;;
12042;SDS011;6082;49.306;12.862;2022-11-15T02:46:55;14.43;;;7.07;;
12042;SDS011;6082;49.306;12.862;2022-11-15T02:49:37;11.63;;;6.87;;
12042;SDS011;6082;49.306;12.862;2022-11-15T02:52:05;10.23;;;6.13;;
12042;SDS011;6082;49.306;12.862;2022-11-15T02:54:31;19.37;;;6.60;;
12042;SDS011;6082;49.306;12.862;2022-11-15T02:57:04;11.40;;;6.63;;
12042;SDS011;6082;49.306;12.862;2022-11-15T03:15:05;16.33;;;7.73;;
12042;SDS011;6082;49.306;12.862;2022-11-15T03:17:39;13.53;;;6.37;;
12042;SDS011;6082;49.306;12.862;2022-11-15T03:20:06;13.17;;;7.13;;
12042;SDS011;6082;49.306;12.862;2022-11-15T03:22:35;10.50;;;6.77;;
12042;SDS011;6082;49.306;12.862;2022-11-15T03:25:04;9.70;;;5.63;;
12042;SDS011;6082;49.306;12.862;2022-11-15T03:27:32;13.10;;;6.63;;
12042;SDS011;6082;49.306;12.862;2022-11-15T03:30:00;10.87;;;6.00;;
12042;SDS011;6082;49.306;12.862;2022-11-15T03:32:31;11.20;;;6.87;;
12042;SDS011;6082;49.306;12.862;2022-11-15T03:34:58;10.80;;;6.60;;
12042;SDS011;6082;49.306;12.862;2022-11-15T03:37:41;8.87;;;5.90;;
12042;SDS011;6082;49.306;12.862;2022-11-15T03:40:08;9.50;;;5.23;;
12042;SDS011;6082;49.306;12.862;2022-11-15T03:45:40;10.10;;;5.93;;
12042;SDS011;6082;49.306;12.862;2022-11-15T03:48:10;15.10;;;5.90;;
12042;SDS011;6082;49.306;12.862;2022-11-15T03:50:38;10.90;;;6.40;;
12042;SDS011;6082;49.306;12.862;2022-11-15T03:53:05;11.97;;;5.80;;
12042;SDS011;6082;49.306;12.862;2022-11-15T03:55:31;9.10;;;5.00;;
12042;SDS011;6082;49.306;12.862;2022-11-15T03:57:58;13.23;;;6.07;;
12042;SDS011;6082;49.306;12.862;2022-11-15T04:00:25;8.80;;;5.23;;
12042;SDS011;6082;49.306;12.862;2022-11-15T04:02:52;10.43;;;5.83;;
12042;SDS011;6082;49.306;12.862;2022-11-15T04:05:18;8.20;;;4.93;;
12042;SDS011;6082;49.306;12.862;2022-11-15T04:07:44;16.10;;;6.57;;
12042;SDS011;6082;49.306;12.862;2022-11-15T04:10:10;9.23;;;5.47;;
12042;SDS011;6082;49.306;12.862;2022-11-15T04:12:38;11.60;;;6.30;;
12042;SDS011;6082;49.306;12.862;2022-11-15T04:15:08;11.63;;;6.27;;
12042;SDS011;6082;49.306;12.862;2022-11-15T04:20:01;11.40;;;5.97;;
12042;SDS011;6082;49.306;12.862;2022-11-15T04:22:45;9.90;;;5.70;;
12042;SDS011;6082;49.306;12.862;2022-11-15T04:25:30;13.33;;;5.83;;
12042;SDS011;6082;49.306;12.862;2022-11-15T04:27:56;10.40;;;5.43;;
12042;SDS011;6082;49.306;12.862;2022-11-15T04:30:22;9.00;;;5.57;;
12042;SDS011;6082;49.306;12.862;2022-11-15T04:32:48;10.13;;;5.20;;
12042;SDS011;6082;49.306;12.862;2022-11-15T04:35:14;15.33;;;5.67;;
12042;SDS011;6082;49.306;12.862;2022-11-15T04:37:40;7.60;;;5.53;;
12042;SDS011;6082;49.306;12.862;2022-11-15T04:40:06;16.00;;;5.30;;
12042;SDS011;6082;49.306;12.862;2022-11-15T04:42:33;9.20;;;5.50;;
12042;SDS011;6082;49.306;12.862;2022-11-15T04:44:59;10.93;;;5.63;;
12042;SDS011;6082;49.306;12.862;2022-11-15T04:47:25;16.37;;;5.70;;
12042;SDS011;6082;49.306;12.862;2022-11-15T04:49:52;8.77;;;4.77;;
12042;SDS011;6082;49.306;12.862;2022-11-15T04:52:18;16.17;;;5.63;;
12042;SDS011;6082;49.306;12.862;2022-11-15T04:54:44;9.17;;;5.40;;
12042;SDS011;6082;49.306;12.862;2022-11-15T04:57:11;11.63;;;5.50;;
12042;SDS011;6082;49.306;12.862;2022-11-15T04:59:37;9.83;;;5.93;;
12042;SDS011;6082;49.306;12.862;2022-11-15T05:02:03;9.73;;;5.23;;
12042;SDS011;6082;49.306;12.862;2022-11-15T05:04:29;8.37;;;4.93;;
12042;SDS011;6082;49.306;12.862;2022-11-15T05:06:55;9.37;;;5.10;;
12042;SDS011;6082;49.306;12.862;2022-11-15T05:09:21;7.70;;;4.53;;
12042;SDS011;6082;49.306;12.862;2022-11-15T05:11:47;7.67;;;5.27;;
12042;SDS011;6082;49.306;12.862;2022-11-15T05:14:13;10.00;;;5.10;;
12042;SDS011;6082;49.306;12.862;2022-11-15T05:16:40;10.23;;;5.23;;
12042;SDS011;6082;49.306;12.862;2022-11-15T05:19:06;9.03;;;4.67;;
12042;SDS011;6082;49.306;12.862;2022-11-15T05:21:33;9.50;;;4.87;;
12042;SDS011;6082;49.306;12.862;2022-11-15T05:23:59;8.27;;;5.43;;
12042;SDS011;6082;49.306;12.862;2022-11-15T05:26:25;9.40;;;5.17;;
12042;SDS011;6082;49.306;12.862;2022-11-15T05:28:54;9.57;;;5.27;;
12042;SDS011;6082;49.306;12.862;2022-11-15T05:31:20;12.40;;;4.87;;
12042;SDS011;6082;49.306;12.862;2022-11-15T05:33:46;9.10;;;5.13;;
12042;SDS011;6082;49.306;12.862;2022-11-15T05:38:40;11.70;;;4.77;;
12042;SDS011;6082;49.306;12.862;2022-11-15T05:41:06;12.47;;;5.67;;
12042;SDS011;6082;49.306;12.862;2022-11-15T05:43:33;6.23;;;4.73;;
12042;SDS011;6082;49.306;12.862;2022-11-15T05:46:01;9.30;;;5.10;;
12042;SDS011;6082;49.306;12.862;2022-11-15T05:48:29;8.10;;;4.97;;
12042;SDS011;6082;49.306;12.862;2022-11-15T05:50:55;12.67;;;4.73;;
12042;SDS011;6082;49.306;12.862;2022-11-15T05:53:21;7.40;;;4.60;;
12042;SDS011;6082;49.306;12.862;2022-11-15T05:55:49;9.07;;;5.03;;
12042;SDS011;6082;49.306;12.862;2022-11-15T05:58:15;6.27;;;4.13;;
12042;SDS011;6082;49.306;12.862;2022-11-15T06:00:41;6.33;;;4.97;;
12042;SDS011;6082;49.306;12.862;2022-11-15T06:03:08;10.43;;;4.90;;
12042;SDS011;6082;49.306;12.862;2022-11-15T06:05:34;10.13;;;5.07;;
12042;SDS011;6082;49.306;12.862;2022-11-15T06:08:00;5.87;;;4.57;;
12042;SDS011;6082;49.306;12.862;2022-11-15T06:10:26;9.70;;;5.20;;
12042;SDS011;6082;49.306;12.862;2022-11-15T06:13:02;8.30;;;5.10;;
12042;SDS011;6082;49.306;12.862;2022-11-15T06:15:29;8.97;;;4.60;;
12042;SDS011;6082;49.306;12.862;2022-11-15T06:17:58;8.03;;;4.53;;
12042;SDS011;6082;49.306;12.862;2022-11-15T06:20:28;7.23;;;4.63;;
12042;SDS011;6082;49.306;12.862;2022-11-15T06:22:58;7.73;;;4.27;;
12042;SDS011;6082;49.306;12.862;2022-11-15T06:25:24;8.60;;;4.50;;
12042;SDS011;6082;49.306;12.862;2022-11-15T06:27:53;8.10;;;4.33;;
12042;SDS011;6082;49.306;12.862;2022-11-15T06:30:20;10.17;;;5.37;;
12042;SDS011;6082;49.306;12.862;2022-11-15T06:32:46;6.00;;;4.70;;
12042;SDS011;6082;49.306;12.862;2022-11-15T06:35:13;9.80;;;5.53;;
12042;SDS011;6082;49.306;12.862;2022-11-15T06:37:39;10.27;;;4.40;;
12042;SDS011;6082;49.306;12.862;2022-11-15T06:40:05;10.47;;;4.40;;
12042;SDS011;6082;49.306;12.862;2022-11-15T06:42:32;9.07;;;5.17;;
12042;SDS011;6082;49.306;12.862;2022-11-15T06:44:58;8.67;;;4.47;;
12042;SDS011;6082;49.306;12.862;2022-11-15T06:47:24;8.93;;;4.30;;
12042;SDS011;6082;49.306;12.862;2022-11-15T06:49:50;8.03;;;4.47;;
12042;SDS011;6082;49.306;12.862;2022-11-15T06:52:16;6.10;;;3.83;;
12042;SDS011;6082;49.306;12.862;2022-11-15T06:54:46;8.53;;;4.20;;
12042;SDS011;6082;49.306;12.862;2022-11-15T06:57:13;6.67;;;4.23;;
12042;SDS011;6082;49.306;12.862;2022-11-15T06:59:39;6.90;;;4.17;;
12042;SDS011;6082;49.306;12.862;2022-11-15T07:02:05;7.03;;;4.40;;
12042;SDS011;6082;49.306;12.862;2022-11-15T07:04:31;6.80;;;4.40;;
12042;SDS011;6082;49.306;12.862;2022-11-15T07:06:57;6.87;;;4.20;;
12042;SDS011;6082;49.306;12.862;2022-11-15T07:09:23;6.70;;;3.87;;
12042;SDS011;6082;49.306;12.862;2022-11-15T07:11:49;6.20;;;4.13;;
12042;SDS011;6082;49.306;12.862;2022-11-15T07:14:15;11.33;;;4.30;;
12042;SDS011;6082;49.306;12.862;2022-11-15T07:16:41;8.73;;;4.67;;
12042;SDS011;6082;49.306;12.862;2022-11-15T07:19:08;8.43;;;4.80;;
12042;SDS011;6082;49.306;12.862;2022-11-15T07:21:34;8.13;;;4.53;;
12042;SDS011;6082;49.306;12.862;2022-11-15T07:24:00;6.73;;;4.33;;
12042;SDS011;6082;49.306;12.862;2022-11-15T07:26:26;8.77;;;4.43;;
12042;SDS011;6082;49.306;12.862;2022-11-15T07:28:52;8.73;;;4.70;;
12042;SDS011;6082;49.306;12.862;2022-11-15T07:31:18;6.93;;;4.00;;
12042;SDS011;6082;49.306;12.862;2022-11-15T07:33:44;7.27;;;4.17;;
12042;SDS011;6082;49.306;12.862;2022-11-15T07:36:10;8.50;;;3.70;;
12042;SDS011;6082;49.306;12.862;2022-11-15T07:38:36;6.63;;;4.13;;
12042;SDS011;6082;49.306;12.862;2022-11-15T07:41:03;8.00;;;4.80;;
12042;SDS011;6082;49.306;12.862;2022-11-15T07:43:29;11.27;;;4.37;;
12042;SDS011;6082;49.306;12.862;2022-11-15T07:45:57;8.67;;;4.83;;
12042;SDS011;6082;49.306;12.862;2022-11-15T07:48:24;6.90;;;4.37;;
12042;SDS011;6082;49.306;12.862;2022-11-15T07:50:50;9.33;;;5.00;;
12042;SDS011;6082;49.306;12.862;2022-11-15T07:53:16;8.80;;;4.70;;
12042;SDS011;6082;49.306;12.862;2022-11-15T07:55:42;12.23;;;4.57;;
12042;SDS011;6082;49.306;12.862;2022-11-15T07:58:09;7.67;;;4.73;;
12042;SDS011;6082;49.306;12.862;2022-11-15T08:00:35;7.27;;;4.03;;
12042;SDS011;6082;49.306;12.862;2022-11-15T08:03:05;6.77;;;4.63;;
12042;SDS011;6082;49.306;12.862;2022-11-15T08:05:32;8.37;;;4.83;;
12042;SDS011;6082;49.306;12.862;2022-11-15T08:07:58;9.70;;;5.53;;
12042;SDS011;6082;49.306;12.862;2022-11-15T08:10:25;6.70;;;4.00;;
12042;SDS011;6082;49.306;12.862;2022-11-15T08:12:58;10.57;;;4.80;;
12042;SDS011;6082;49.306;12.862;2022-11-15T08:15:24;8.30;;;4.97;;
12042;SDS011;6082;49.306;12.862;2022-11-15T08:17:54;9.97;;;5.00;;
12042;SDS011;6082;49.306;12.862;2022-11-15T08:20:20;7.97;;;4.90;;
12042;SDS011;6082;49.306;12.862;2022-11-15T08:22:46;11.47;;;4.63;;
12042;SDS011;6082;49.306;12.862;2022-11-15T08:25:12;7.17;;;4.87;;
12042;SDS011;6082;49.306;12.862;2022-11-15T08:27:38;10.60;;;5.90;;
12042;SDS011;6082;49.306;12.862;2022-11-15T08:30:05;8.80;;;4.67;;
12042;SDS011;6082;49.306;12.862;2022-11-15T08:32:32;13.63;;;5.00;;
12042;SDS011;6082;49.306;12.862;2022-11-15T08:34:58;10.00;;;5.17;;
12042;SDS011;6082;49.306;12.862;2022-11-15T08:37:24;8.43;;;4.43;;
12042;SDS011;6082;49.306;12.862;2022-11-15T08:39:50;15.10;;;5.00;;
12042;SDS011;6082;49.306;12.862;2022-11-15T08:42:16;9.23;;;4.80;;
12042;SDS011;6082;49.306;12.862;2022-11-15T08:44:42;9.57;;;4.53;;
12042;SDS011;6082;49.306;12.862;2022-11-15T08:47:10;8.40;;;4.73;;
12042;SDS011;6082;49.306;12.862;2022-11-15T08:49:37;9.27;;;4.87;;
12042;SDS011;6082;49.306;12.862;2022-11-15T08:52:03;10.37;;;5.53;;
12042;SDS011;6082;49.306;12.862;2022-11-15T08:54:29;12.67;;;4.63;;
12042;SDS011;6082;49.306;12.862;2022-11-15T08:56:56;10.40;;;5.37;;
12042;SDS011;6082;49.306;12.862;2022-11-15T08:59:22;9.13;;;4.57;;
12042;SDS011;6082;49.306;12.862;2022-11-15T09:01:48;8.27;;;4.60;;
12042;SDS011;6082;49.306;12.862;2022-11-15T09:04:14;11.83;;;5.00;;
12042;SDS011;6082;49.306;12.862;2022-11-15T09:06:40;9.07;;;5.47;;
12042;SDS011;6082;49.306;12.862;2022-11-15T09:09:06;12.47;;;4.77;;
12042;SDS011;6082;49.306;12.862;2022-11-15T09:11:32;14.90;;;5.73;;
12042;SDS011;6082;49.306;12.862;2022-11-15T09:13:58;8.43;;;4.30;;
12042;SDS011;6082;49.306;12.862;2022-11-15T09:16:24;8.03;;;4.90;;
12042;SDS011;6082;49.306;12.862;2022-11-15T09:18:50;8.37;;;4.67;;
12042;SDS011;6082;49.306;12.862;2022-11-15T09:21:16;9.33;;;4.73;;
12042;SDS011;6082;49.306;12.862;2022-11-15T09:23:42;10.83;;;4.67;;
12042;SDS011;6082;49.306;12.862;2022-11-15T09:26:08;7.67;;;4.97;;
12042;SDS011;6082;49.306;12.862;2022-11-15T09:28:34;10.40;;;4.77;;
12042;SDS011;6082;49.306;12.862;2022-11-15T09:31:03;11.17;;;4.53;;
12042;SDS011;6082;49.306;12.862;2022-11-15T09:33:30;8.20;;;4.20;;
12042;SDS011;6082;49.306;12.862;2022-11-15T09:36:03;7.40;;;4.03;;
12042;SDS011;6082;49.306;12.862;2022-11-15T09:38:29;8.57;;;4.70;;
12042;SDS011;6082;49.306;12.862;2022-11-15T09:49:15;9.23;;;4.47;;
12042;SDS011;6082;49.306;12.862;2022-11-15T09:51:45;7.60;;;5.37;;
12042;SDS011;6082;49.306;12.862;2022-11-15T09:54:16;8.23;;;4.50;;
12042;SDS011;6082;49.306;12.862;2022-11-15T09:56:44;8.73;;;5.00;;
12042;SDS011;6082;49.306;12.862;2022-11-15T10:04:36;9.57;;;4.77;;
12042;SDS011;6082;49.306;12.862;2022-11-15T10:10:23;11.27;;;4.67;;
12042;SDS011;6082;49.306;12.862;2022-11-15T10:12:53;8.13;;;4.83;;
12042;SDS011;6082;49.306;12.862;2022-11-15T10:15:19;9.37;;;4.80;;
12042;SDS011;6082;49.306;12.862;2022-11-15T10:20:25;11.47;;;5.70;;
12042;SDS011;6082;49.306;12.862;2022-11-15T10:22:53;10.97;;;5.67;;
12042;SDS011;6082;49.306;12.862;2022-11-15T10:27:59;11.47;;;5.17;;
12042;SDS011;6082;49.306;12.862;2022-11-15T10:30:30;18.90;;;5.00;;
12042;SDS011;6082;49.306;12.862;2022-11-15T10:34:05;15.37;;;6.23;;
12042;SDS011;6082;49.306;12.862;2022-11-15T10:44:09;10.50;;;5.77;;
12042;SDS011;6082;49.306;12.862;2022-11-15T10:46:37;11.23;;;6.27;;
12042;SDS011;6082;49.306;12.862;2022-11-15T10:49:20;11.80;;;5.97;;
12042;SDS011;6082;49.306;12.862;2022-11-15T10:54:41;9.87;;;5.17;;
12042;SDS011;6082;49.306;12.862;2022-11-15T10:57:17;10.10;;;5.30;;
12042;SDS011;6082;49.306;12.862;2022-11-15T10:59:49;10.83;;;6.00;;
12042;SDS011;6082;49.306;12.862;2022-11-15T11:02:29;10.87;;;5.83;;
12042;SDS011;6082;49.306;12.862;2022-11-15T11:04:56;12.33;;;5.90;;
12042;SDS011;6082;49.306;12.862;2022-11-15T11:07:24;11.87;;;5.27;;
12042;SDS011;6082;49.306;12.862;2022-11-15T11:10:05;9.57;;;5.57;;
12042;SDS011;6082;49.306;12.862;2022-11-15T11:12:43;12.63;;;5.83;;
12042;SDS011;6082;49.306;12.862;2022-11-15T11:15:10;13.47;;;6.20;;
12042;SDS011;6082;49.306;12.862;2022-11-15T11:17:48;12.87;;;6.30;;
12042;SDS011;6082;49.306;12.862;2022-11-15T11:37:19;11.13;;;6.30;;
12042;SDS011;6082;49.306;12.862;2022-11-15T11:45:05;13.67;;;7.03;;
12042;SDS011;6082;49.306;12.862;2022-11-15T11:48:02;14.63;;;6.83;;
12042;SDS011;6082;49.306;12.862;2022-11-15T11:50:38;11.60;;;6.03;;
12042;SDS011;6082;49.306;12.862;2022-11-15T11:53:09;13.07;;;6.90;;
12042;SDS011;6082;49.306;12.862;2022-11-15T11:55:37;11.80;;;6.10;;
12042;SDS011;6082;49.306;12.862;2022-11-15T12:00:49;13.63;;;6.47;;
12042;SDS011;6082;49.306;12.862;2022-11-15T12:06:04;12.40;;;6.10;;
12042;SDS011;6082;49.306;12.862;2022-11-15T12:08:46;10.70;;;6.20;;
12042;SDS011;6082;49.306;12.862;2022-11-15T12:11:20;13.10;;;6.23;;
12042;SDS011;6082;49.306;12.862;2022-11-15T12:13:57;10.97;;;6.50;;
12042;SDS011;6082;49.306;12.862;2022-11-15T12:16:28;15.27;;;6.67;;
12042;SDS011;6082;49.306;12.862;2022-11-15T12:18:58;14.73;;;7.10;;
12042;SDS011;6082;49.306;12.862;2022-11-15T12:21:33;14.57;;;7.10;;
12042;SDS011;6082;49.306;12.862;2022-11-15T12:24:07;12.67;;;6.37;;
12042;SDS011;6082;49.306;12.862;2022-11-15T12:26:42;13.20;;;6.27;;
12042;SDS011;6082;49.306;12.862;2022-11-15T12:29:19;11.23;;;5.87;;
12042;SDS011;6082;49.306;12.862;2022-11-15T12:32:14;12.00;;;6.07;;
12042;SDS011;6082;49.306;12.862;2022-11-15T12:34:52;12.87;;;5.73;;
12042;SDS011;6082;49.306;12.862;2022-11-15T12:42:41;11.70;;;6.80;;
12042;SDS011;6082;49.306;12.862;2022-11-15T12:45:25;9.37;;;5.87;;
12042;SDS011;6082;49.306;12.862;2022-11-15T12:58:50;14.43;;;6.17;;
12042;SDS011;6082;49.306;12.862;2022-11-15T13:06:54;11.17;;;5.83;;
12042;SDS011;6082;49.306;12.862;2022-11-15T13:13:03;14.13;;;6.63;;
12042;SDS011;6082;49.306;12.862;2022-11-15T13:14:59;15.17;;;5.63;;
12042;SDS011;6082;49.306;12.862;2022-11-15T13:17:30;14.53;;;7.17;;
12042;SDS011;6082;49.306;12.862;2022-11-15T13:27:47;11.50;;;6.37;;
12042;SDS011;6082;49.306;12.862;2022-11-15T13:30:21;10.40;;;6.10;;
12042;SDS011;6082;49.306;12.862;2022-11-15T13:32:52;13.30;;;6.13;;
12042;SDS011;6082;49.306;12.862;2022-11-15T13:35:28;12.47;;;6.50;;
12042;SDS011;6082;49.306;12.862;2022-11-15T13:37:56;13.83;;;6.33;;
12042;SDS011;6082;49.306;12.862;2022-11-15T13:40:28;12.70;;;6.50;;
12042;SDS011;6082;49.306;12.862;2022-11-15T13:42:59;13.50;;;7.23;;
12042;SDS011;6082;49.306;12.862;2022-11-15T13:45:38;9.53;;;5.30;;
12042;SDS011;6082;49.306;12.862;2022-11-15T13:48:04;10.63;;;5.53;;
12042;SDS011;6082;49.306;12.862;2022-11-15T13:50:33;13.60;;;7.80;;
12042;SDS011;6082;49.306;12.862;2022-11-15T13:53:02;13.30;;;5.67;;
12042;SDS011;6082;49.306;12.862;2022-11-15T13:55:29;15.33;;;6.87;;
12042;SDS011;6082;49.306;12.862;2022-11-15T13:58:02;12.90;;;6.40;;
12042;SDS011;6082;49.306;12.862;2022-11-15T14:00:38;12.77;;;6.33;;
12042;SDS011;6082;49.306;12.862;2022-11-15T14:08:31;14.73;;;6.17;;
12042;SDS011;6082;49.306;12.862;2022-11-15T14:13:38;12.97;;;6.43;;
12042;SDS011;6082;49.306;12.862;2022-11-15T14:16:14;15.73;;;7.63;;
12042;SDS011;6082;49.306;12.862;2022-11-15T14:18:46;15.93;;;6.70;;
12042;SDS011;6082;49.306;12.862;2022-11-15T14:21:13;15.20;;;6.77;;
12042;SDS011;6082;49.306;12.862;2022-11-15T14:23:39;15.47;;;7.00;;
12042;SDS011;6082;49.306;12.862;2022-11-15T14:26:05;12.97;;;6.13;;
12042;SDS011;6082;49.306;12.862;2022-11-15T14:28:32;16.47;;;6.57;;
12042;SDS011;6082;49.306;12.862;2022-11-15T14:31:01;13.40;;;6.03;;
12042;SDS011;6082;49.306;12.862;2022-11-15T14:33:32;14.40;;;7.13;;
12042;SDS011;6082;49.306;12.862;2022-11-15T14:36:10;17.10;;;7.93;;
12042;SDS011;6082;49.306;12.862;2022-11-15T14:38:37;9.73;;;6.00;;
12042;SDS011;6082;49.306;12.862;2022-11-15T14:41:03;15.50;;;7.30;;
12042;SDS011;6082;49.306;12.862;2022-11-15T14:43:30;16.03;;;7.30;;
12042;SDS011;6082;49.306;12.862;2022-11-15T14:45:56;14.47;;;7.30;;
12042;SDS011;6082;49.306;12.862;2022-11-15T14:48:22;13.50;;;7.23;;
12042;SDS011;6082;49.306;12.862;2022-11-15T14:50:47;13.23;;;7.33;;
12042;SDS011;6082;49.306;12.862;2022-11-15T14:53:14;15.83;;;6.90;;
12042;SDS011;6082;49.306;12.862;2022-11-15T14:55:41;19.00;;;7.40;;
12042;SDS011;6082;49.306;12.862;2022-11-15T14:58:07;15.90;;;6.13;;
12042;SDS011;6082;49.306;12.862;2022-11-15T15:00:33;14.73;;;6.50;;
12042;SDS011;6082;49.306;12.862;2022-11-15T15:03:00;11.43;;;6.20;;
12042;SDS011;6082;49.306;12.862;2022-11-15T15:05:33;13.43;;;6.90;;
12042;SDS011;6082;49.306;12.862;2022-11-15T15:08:04;11.90;;;6.77;;
12042;SDS011;6082;49.306;12.862;2022-11-15T15:10:31;19.00;;;6.90;;
12042;SDS011;6082;49.306;12.862;2022-11-15T15:15:44;13.13;;;6.10;;
12042;SDS011;6082;49.306;12.862;2022-11-15T15:18:10;11.93;;;6.83;;
12042;SDS011;6082;49.306;12.862;2022-11-15T15:20:37;15.00;;;6.13;;
12042;SDS011;6082;49.306;12.862;2022-11-15T15:23:05;10.73;;;6.53;;
12042;SDS011;6082;49.306;12.862;2022-11-15T15:25:34;14.90;;;7.10;;
12042;SDS011;6082;49.306;12.862;2022-11-15T15:28:00;17.33;;;7.00;;
12042;SDS011;6082;49.306;12.862;2022-11-15T15:30:28;13.80;;;6.33;;
12042;SDS011;6082;49.306;12.862;2022-11-15T15:32:55;15.07;;;6.77;;
12042;SDS011;6082;49.306;12.862;2022-11-15T15:35:21;14.67;;;6.83;;
12042;SDS011;6082;49.306;12.862;2022-11-15T15:37:47;14.00;;;6.83;;
12042;SDS011;6082;49.306;12.862;2022-11-15T15:40:18;14.13;;;6.87;;
12042;SDS011;6082;49.306;12.862;2022-11-15T15:42:45;16.70;;;7.17;;
12042;SDS011;6082;49.306;12.862;2022-11-15T15:45:12;13.00;;;6.77;;
12042;SDS011;6082;49.306;12.862;2022-11-15T15:47:39;14.13;;;7.27;;
12042;SDS011;6082;49.306;12.862;2022-11-15T15:50:16;17.33;;;8.17;;
12042;SDS011;6082;49.306;12.862;2022-11-15T15:52:46;14.00;;;6.00;;
12042;SDS011;6082;49.306;12.862;2022-11-15T15:55:12;15.60;;;8.13;;
12042;SDS011;6082;49.306;12.862;2022-11-15T15:57:38;17.50;;;8.20;;
12042;SDS011;6082;49.306;12.862;2022-11-15T16:00:04;18.50;;;7.20;;
12042;SDS011;6082;49.306;12.862;2022-11-15T16:02:30;15.20;;;6.80;;
12042;SDS011;6082;49.306;12.862;2022-11-15T16:04:56;14.80;;;7.30;;
12042;SDS011;6082;49.306;12.862;2022-11-15T16:07:22;16.13;;;7.70;;
12042;SDS011;6082;49.306;12.862;2022-11-15T16:09:53;17.50;;;7.60;;
12042;SDS011;6082;49.306;12.862;2022-11-15T16:12:25;18.60;;;7.77;;
12042;SDS011;6082;49.306;12.862;2022-11-15T16:14:51;16.93;;;8.37;;
12042;SDS011;6082;49.306;12.862;2022-11-15T16:17:18;17.43;;;8.17;;
12042;SDS011;6082;49.306;12.862;2022-11-15T16:19:46;17.03;;;8.37;;
12042;SDS011;6082;49.306;12.862;2022-11-15T16:22:12;14.83;;;8.10;;
12042;SDS011;6082;49.306;12.862;2022-11-15T16:24:37;18.63;;;8.37;;
12042;SDS011;6082;49.306;12.862;2022-11-15T16:27:03;18.80;;;8.77;;
12042;SDS011;6082;49.306;12.862;2022-11-15T16:29:29;13.03;;;7.07;;
12042;SDS011;6082;49.306;12.862;2022-11-15T16:31:54;16.90;;;8.00;;
12042;SDS011;6082;49.306;12.862;2022-11-15T16:34:21;13.80;;;7.53;;
12042;SDS011;6082;49.306;12.862;2022-11-15T16:36:46;16.63;;;7.63;;
12042;SDS011;6082;49.306;12.862;2022-11-15T16:39:13;17.70;;;7.03;;
12042;SDS011;6082;49.306;12.862;2022-11-15T16:41:40;19.77;;;7.70;;
12042;SDS011;6082;49.306;12.862;2022-11-15T16:44:08;14.93;;;6.97;;
12042;SDS011;6082;49.306;12.862;2022-11-15T16:46:33;16.00;;;7.50;;
12042;SDS011;6082;49.306;12.862;2022-11-15T16:48:59;17.23;;;7.87;;
12042;SDS011;6082;49.306;12.862;2022-11-15T16:51:25;17.20;;;8.07;;
12042;SDS011;6082;49.306;12.862;2022-11-15T16:53:51;19.57;;;8.20;;
12042;SDS011;6082;49.306;12.862;2022-11-15T16:58:53;18.70;;;7.83;;
12042;SDS011;6082;49.306;12.862;2022-11-15T17:01:23;12.20;;;6.97;;
12042;SDS011;6082;49.306;12.862;2022-11-15T17:03:50;14.30;;;7.17;;
12042;SDS011;6082;49.306;12.862;2022-11-15T17:06:16;16.03;;;7.50;;
12042;SDS011;6082;49.306;12.862;2022-11-15T17:08:43;14.77;;;7.40;;
12042;SDS011;6082;49.306;12.862;2022-11-15T17:11:10;15.50;;;8.00;;
12042;SDS011;6082;49.306;12.862;2022-11-15T17:13:40;12.93;;;6.73;;
12042;SDS011;6082;49.306;12.862;2022-11-15T17:16:06;13.63;;;7.67;;